sensor_id;sensor_type;location;lat;lon;timestamp;P1;durP1;ratioP1;P2;durP2;ratioP2
52918;SDS011;38793;52.690;6.812;2023-07-24T12:40:05;8.83;;;4.73;;
52918;SDS011;38793;52.690;6.812;2023-07-24T12:42:31;9.25;;;5.60;;
52918;SDS011;38793;52.690;6.812;2023-07-24T12:47:22;8.63;;;4.97;;
52918;SDS011;38793;52.690;6.812;2023-07-24T12:49:48;8.80;;;5.22;;
52918;SDS011;38793;52.690;6.812;2023-07-24T12:52:14;6.07;;;4.82;;
52918;SDS011;38793;52.690;6.812;2023-07-24T12:54:40;8.38;;;5.53;;
52918;SDS011;38793;52.690;6.812;2023-07-24T12:57:05;5.55;;;5.03;;
52918;SDS011;38793;52.690;6.812;2023-07-24T12:59:31;6.82;;;5.63;;
52918;SDS011;38793;52.690;6.812;2023-07-24T13:01:56;7.35;;;5.22;;
52918;SDS011;38793;52.690;6.812;2023-07-24T13:04:22;9.65;;;4.90;;
52918;SDS011;38793;52.690;6.812;2023-07-24T13:06:48;8.15;;;5.65;;
52918;SDS011;38793;52.690;6.812;2023-07-24T13:09:14;10.25;;;5.10;;
52918;SDS011;38793;52.690;6.812;2023-07-24T13:11:40;6.32;;;4.80;;
52918;SDS011;38793;52.690;6.812;2023-07-24T13:14:05;8.80;;;4.25;;
52918;SDS011;38793;52.690;6.812;2023-07-24T13:16:31;9.77;;;5.35;;
52918;SDS011;38793;52.690;6.812;2023-07-24T13:18:57;8.70;;;6.10;;
52918;SDS011;38793;52.690;6.812;2023-07-24T13:21:22;5.32;;;4.25;;
52918;SDS011;38793;52.690;6.812;2023-07-24T13:23:48;7.20;;;4.53;;
52918;SDS011;38793;52.690;6.812;2023-07-24T13:26:14;5.03;;;4.15;;
52918;SDS011;38793;52.690;6.812;2023-07-24T13:28:40;8.00;;;4.70;;
52918;SDS011;38793;52.690;6.812;2023-07-24T13:31:16;5.78;;;4.50;;
52918;SDS011;38793;52.690;6.812;2023-07-24T13:33:43;5.28;;;4.45;;
52918;SDS011;38793;52.690;6.812;2023-07-24T13:36:09;6.88;;;4.28;;
52918;SDS011;38793;52.690;6.812;2023-07-24T13:38:34;5.28;;;3.97;;
52918;SDS011;38793;52.690;6.812;2023-07-24T13:41:00;5.63;;;4.45;;
52918;SDS011;38793;52.690;6.812;2023-07-24T13:43:27;6.30;;;3.80;;
52918;SDS011;38793;52.690;6.812;2023-07-24T13:45:53;8.60;;;3.40;;
52918;SDS011;38793;52.690;6.812;2023-07-24T13:48:18;8.38;;;4.13;;
52918;SDS011;38793;52.690;6.812;2023-07-24T13:50:44;7.55;;;4.32;;
52918;SDS011;38793;52.690;6.812;2023-07-24T13:53:10;5.38;;;4.18;;
52918;SDS011;38793;52.690;6.812;2023-07-24T13:55:35;4.95;;;3.00;;
52918;SDS011;38793;52.690;6.812;2023-07-24T13:58:01;7.53;;;2.40;;
52918;SDS011;38793;52.690;6.812;2023-07-24T14:00:26;3.95;;;2.00;;
52918;SDS011;38793;52.690;6.812;2023-07-24T14:02:52;14.13;;;4.88;;
52918;SDS011;38793;52.690;6.812;2023-07-24T14:05:17;16.15;;;6.43;;
52918;SDS011;38793;52.690;6.812;2023-07-24T14:07:43;14.88;;;5.07;;
52918;SDS011;38793;52.690;6.812;2023-07-24T14:12:35;11.05;;;4.25;;
52918;SDS011;38793;52.690;6.812;2023-07-24T14:18:22;7.00;;;5.05;;
52918;SDS011;38793;52.690;6.812;2023-07-24T14:23:13;7.82;;;5.65;;
52918;SDS011;38793;52.690;6.812;2023-07-24T14:28:04;8.20;;;6.07;;
52918;SDS011;38793;52.690;6.812;2023-07-24T14:32:56;8.68;;;6.05;;
52918;SDS011;38793;52.690;6.812;2023-07-24T14:37:47;7.75;;;6.47;;
52918;SDS011;38793;52.690;6.812;2023-07-24T14:42:38;9.23;;;7.82;;
52918;SDS011;38793;52.690;6.812;2023-07-24T14:47:29;11.85;;;8.13;;
52918;SDS011;38793;52.690;6.812;2023-07-24T14:52:22;11.00;;;9.32;;
52918;SDS011;38793;52.690;6.812;2023-07-24T14:57:13;13.30;;;9.00;;
52918;SDS011;38793;52.690;6.812;2023-07-24T15:02:04;10.20;;;9.18;;
52918;SDS011;38793;52.690;6.812;2023-07-24T15:04:30;13.30;;;9.90;;
52918;SDS011;38793;52.690;6.812;2023-07-24T15:06:56;11.23;;;9.48;;
52918;SDS011;38793;52.690;6.812;2023-07-24T15:09:21;12.27;;;10.23;;
52918;SDS011;38793;52.690;6.812;2023-07-24T15:14:12;12.30;;;9.30;;
52918;SDS011;38793;52.690;6.812;2023-07-24T15:19:03;12.10;;;10.55;;
52918;SDS011;38793;52.690;6.812;2023-07-24T15:23:55;7.22;;;6.53;;
52918;SDS011;38793;52.690;6.812;2023-07-24T15:28:46;6.88;;;6.20;;
52918;SDS011;38793;52.690;6.812;2023-07-24T15:33:37;5.07;;;4.47;;
52918;SDS011;38793;52.690;6.812;2023-07-24T15:38:28;4.30;;;1.48;;
52918;SDS011;38793;52.690;6.812;2023-07-24T15:40:54;2.67;;;1.48;;
52918;SDS011;38793;52.690;6.812;2023-07-24T15:45:49;2.72;;;1.38;;
52918;SDS011;38793;52.690;6.812;2023-07-24T15:48:14;2.72;;;0.93;;
52918;SDS011;38793;52.690;6.812;2023-07-24T15:53:06;2.60;;;1.52;;
52918;SDS011;38793;52.690;6.812;2023-07-24T15:57:57;5.53;;;1.02;;
52918;SDS011;38793;52.690;6.812;2023-07-24T16:02:52;2.60;;;0.80;;
52918;SDS011;38793;52.690;6.812;2023-07-24T16:05:18;3.38;;;0.98;;
52918;SDS011;38793;52.690;6.812;2023-07-24T16:07:45;3.88;;;1.08;;
52918;SDS011;38793;52.690;6.812;2023-07-24T16:10:11;6.72;;;1.58;;
52918;SDS011;38793;52.690;6.812;2023-07-24T16:12:38;5.75;;;1.35;;
52918;SDS011;38793;52.690;6.812;2023-07-24T16:15:05;6.15;;;1.30;;
52918;SDS011;38793;52.690;6.812;2023-07-24T16:17:33;2.30;;;0.80;;
52918;SDS011;38793;52.690;6.812;2023-07-24T16:22:25;2.55;;;0.70;;
52918;SDS011;38793;52.690;6.812;2023-07-24T16:27:16;5.20;;;1.10;;
52918;SDS011;38793;52.690;6.812;2023-07-24T16:32:10;3.20;;;1.23;;
52918;SDS011;38793;52.690;6.812;2023-07-24T16:34:35;7.60;;;1.05;;
52918;SDS011;38793;52.690;6.812;2023-07-24T16:37:02;5.20;;;0.68;;
52918;SDS011;38793;52.690;6.812;2023-07-24T16:39:28;3.28;;;0.77;;
52918;SDS011;38793;52.690;6.812;2023-07-24T16:41:53;4.35;;;0.80;;
52918;SDS011;38793;52.690;6.812;2023-07-24T16:46:45;4.43;;;0.70;;
52918;SDS011;38793;52.690;6.812;2023-07-24T16:51:36;3.20;;;0.60;;
52918;SDS011;38793;52.690;6.812;2023-07-24T16:56:27;3.67;;;0.52;;
52918;SDS011;38793;52.690;6.812;2023-07-24T17:01:18;6.00;;;0.73;;
52918;SDS011;38793;52.690;6.812;2023-07-24T17:06:09;10.95;;;0.60;;
52918;SDS011;38793;52.690;6.812;2023-07-24T17:08:35;6.35;;;0.60;;
52918;SDS011;38793;52.690;6.812;2023-07-24T17:13:26;2.60;;;0.60;;
52918;SDS011;38793;52.690;6.812;2023-07-24T17:15:52;4.10;;;0.50;;
52918;SDS011;38793;52.690;6.812;2023-07-24T17:18:17;5.47;;;0.80;;
52918;SDS011;38793;52.690;6.812;2023-07-24T17:20:43;3.67;;;0.82;;
52918;SDS011;38793;52.690;6.812;2023-07-24T17:23:09;1.30;;;0.60;;
52918;SDS011;38793;52.690;6.812;2023-07-24T17:25:34;7.78;;;1.40;;
52918;SDS011;38793;52.690;6.812;2023-07-24T17:28:01;6.43;;;0.60;;
52918;SDS011;38793;52.690;6.812;2023-07-24T17:30:30;3.97;;;0.65;;
52918;SDS011;38793;52.690;6.812;2023-07-24T17:32:56;5.78;;;0.50;;
52918;SDS011;38793;52.690;6.812;2023-07-24T17:35:23;6.10;;;0.75;;
52918;SDS011;38793;52.690;6.812;2023-07-24T17:37:48;3.72;;;0.40;;
52918;SDS011;38793;52.690;6.812;2023-07-24T17:42:39;5.57;;;0.55;;
52918;SDS011;38793;52.690;6.812;2023-07-24T17:45:05;3.53;;;0.75;;
52918;SDS011;38793;52.690;6.812;2023-07-24T17:47:31;5.65;;;0.32;;
52918;SDS011;38793;52.690;6.812;2023-07-24T17:49:57;3.38;;;0.63;;
52918;SDS011;38793;52.690;6.812;2023-07-24T17:52:23;2.47;;;0.50;;
52918;SDS011;38793;52.690;6.812;2023-07-24T17:54:49;2.95;;;0.40;;
52918;SDS011;38793;52.690;6.812;2023-07-24T17:57:15;3.03;;;0.40;;
52918;SDS011;38793;52.690;6.812;2023-07-24T17:59:40;3.83;;;0.47;;
52918;SDS011;38793;52.690;6.812;2023-07-24T18:02:07;3.15;;;0.32;;
52918;SDS011;38793;52.690;6.812;2023-07-24T18:04:33;6.90;;;0.30;;
52918;SDS011;38793;52.690;6.812;2023-07-24T18:06:59;4.88;;;0.55;;
52918;SDS011;38793;52.690;6.812;2023-07-24T18:09:25;5.30;;;0.38;;
52918;SDS011;38793;52.690;6.812;2023-07-24T18:11:51;2.13;;;0.47;;
52918;SDS011;38793;52.690;6.812;2023-07-24T18:14:17;5.03;;;0.50;;
52918;SDS011;38793;52.690;6.812;2023-07-24T18:16:45;2.00;;;0.50;;
52918;SDS011;38793;52.690;6.812;2023-07-24T18:19:11;3.03;;;0.50;;
52918;SDS011;38793;52.690;6.812;2023-07-24T18:21:36;1.52;;;0.40;;
52918;SDS011;38793;52.690;6.812;2023-07-24T18:24:02;3.38;;;0.63;;
52918;SDS011;38793;52.690;6.812;2023-07-24T18:26:30;5.30;;;0.95;;
52918;SDS011;38793;52.690;6.812;2023-07-24T18:28:57;3.63;;;0.68;;
52918;SDS011;38793;52.690;6.812;2023-07-24T18:31:23;4.68;;;0.50;;
52918;SDS011;38793;52.690;6.812;2023-07-24T18:33:49;1.58;;;0.50;;
52918;SDS011;38793;52.690;6.812;2023-07-24T18:36:14;2.88;;;0.65;;
52918;SDS011;38793;52.690;6.812;2023-07-24T18:38:40;5.00;;;0.70;;
52918;SDS011;38793;52.690;6.812;2023-07-24T18:41:06;0.63;;;0.43;;
52918;SDS011;38793;52.690;6.812;2023-07-24T18:43:32;1.90;;;0.70;;
52918;SDS011;38793;52.690;6.812;2023-07-24T18:45:57;2.83;;;1.00;;
52918;SDS011;38793;52.690;6.812;2023-07-24T18:48:23;4.10;;;1.00;;
52918;SDS011;38793;52.690;6.812;2023-07-24T18:50:51;2.15;;;0.55;;
52918;SDS011;38793;52.690;6.812;2023-07-24T18:53:17;3.33;;;0.70;;
52918;SDS011;38793;52.690;6.812;2023-07-24T18:55:42;5.03;;;0.75;;
52918;SDS011;38793;52.690;6.812;2023-07-24T18:58:08;4.07;;;0.88;;
52918;SDS011;38793;52.690;6.812;2023-07-24T19:00:34;1.98;;;0.50;;
52918;SDS011;38793;52.690;6.812;2023-07-24T19:02:59;3.65;;;0.80;;
52918;SDS011;38793;52.690;6.812;2023-07-24T19:05:25;2.75;;;0.55;;
52918;SDS011;38793;52.690;6.812;2023-07-24T19:07:50;6.50;;;0.75;;
52918;SDS011;38793;52.690;6.812;2023-07-24T19:10:16;2.60;;;0.57;;
52918;SDS011;38793;52.690;6.812;2023-07-24T19:12:42;2.38;;;0.98;;
52918;SDS011;38793;52.690;6.812;2023-07-24T19:15:08;1.67;;;0.70;;
52918;SDS011;38793;52.690;6.812;2023-07-24T19:17:34;3.88;;;0.93;;
52918;SDS011;38793;52.690;6.812;2023-07-24T19:19:59;4.18;;;0.50;;
52918;SDS011;38793;52.690;6.812;2023-07-24T19:22:25;3.00;;;0.65;;
52918;SDS011;38793;52.690;6.812;2023-07-24T19:24:51;3.63;;;0.50;;
52918;SDS011;38793;52.690;6.812;2023-07-24T19:27:19;3.53;;;0.52;;
52918;SDS011;38793;52.690;6.812;2023-07-24T19:29:45;8.77;;;1.02;;
52918;SDS011;38793;52.690;6.812;2023-07-24T19:32:10;6.70;;;1.10;;
52918;SDS011;38793;52.690;6.812;2023-07-24T19:34:36;2.75;;;0.73;;
52918;SDS011;38793;52.690;6.812;2023-07-24T19:37:01;2.80;;;0.52;;
52918;SDS011;38793;52.690;6.812;2023-07-24T19:39:27;4.15;;;0.73;;
52918;SDS011;38793;52.690;6.812;2023-07-24T19:41:53;3.72;;;0.57;;
52918;SDS011;38793;52.690;6.812;2023-07-24T19:44:18;3.45;;;0.55;;
52918;SDS011;38793;52.690;6.812;2023-07-24T19:46:44;3.22;;;0.60;;
52918;SDS011;38793;52.690;6.812;2023-07-24T19:49:10;4.78;;;0.63;;
52918;SDS011;38793;52.690;6.812;2023-07-24T19:51:35;1.70;;;0.60;;
52918;SDS011;38793;52.690;6.812;2023-07-24T19:54:01;5.55;;;0.60;;
52918;SDS011;38793;52.690;6.812;2023-07-24T19:56:26;2.22;;;0.93;;
52918;SDS011;38793;52.690;6.812;2023-07-24T19:58:52;2.10;;;0.75;;
52918;SDS011;38793;52.690;6.812;2023-07-24T20:03:44;3.45;;;0.70;;
52918;SDS011;38793;52.690;6.812;2023-07-24T20:06:09;3.15;;;0.52;;
52918;SDS011;38793;52.690;6.812;2023-07-24T20:08:35;5.40;;;0.80;;
52918;SDS011;38793;52.690;6.812;2023-07-24T20:11:02;5.47;;;0.93;;
52918;SDS011;38793;52.690;6.812;2023-07-24T20:13:31;6.00;;;0.80;;
52918;SDS011;38793;52.690;6.812;2023-07-24T20:15:58;5.00;;;0.63;;
52918;SDS011;38793;52.690;6.812;2023-07-24T20:18:24;5.57;;;0.70;;
52918;SDS011;38793;52.690;6.812;2023-07-24T20:20:50;16.60;;;1.60;;
52918;SDS011;38793;52.690;6.812;2023-07-24T20:23:16;7.68;;;1.00;;
52918;SDS011;38793;52.690;6.812;2023-07-24T20:25:47;4.38;;;0.98;;
52918;SDS011;38793;52.690;6.812;2023-07-24T20:28:15;5.80;;;0.90;;
52918;SDS011;38793;52.690;6.812;2023-07-24T20:30:42;8.90;;;1.05;;
52918;SDS011;38793;52.690;6.812;2023-07-24T20:33:08;4.85;;;1.20;;
52918;SDS011;38793;52.690;6.812;2023-07-24T20:35:36;4.25;;;1.17;;
52918;SDS011;38793;52.690;6.812;2023-07-24T20:38:05;10.40;;;1.20;;
52918;SDS011;38793;52.690;6.812;2023-07-24T20:40:31;4.57;;;0.90;;
52918;SDS011;38793;52.690;6.812;2023-07-24T20:42:58;4.50;;;0.80;;
52918;SDS011;38793;52.690;6.812;2023-07-24T20:45:24;6.38;;;0.90;;
52918;SDS011;38793;52.690;6.812;2023-07-24T20:50:15;3.60;;;1.27;;
52918;SDS011;38793;52.690;6.812;2023-07-24T20:52:41;11.82;;;0.95;;
52918;SDS011;38793;52.690;6.812;2023-07-24T20:57:33;7.40;;;1.02;;
52918;SDS011;38793;52.690;6.812;2023-07-24T20:59:58;3.92;;;1.25;;
52918;SDS011;38793;52.690;6.812;2023-07-24T21:02:24;4.05;;;1.00;;
52918;SDS011;38793;52.690;6.812;2023-07-24T21:04:49;11.98;;;2.15;;
52918;SDS011;38793;52.690;6.812;2023-07-24T21:07:15;6.40;;;1.05;;
52918;SDS011;38793;52.690;6.812;2023-07-24T21:09:40;4.28;;;1.00;;
52918;SDS011;38793;52.690;6.812;2023-07-24T21:12:06;5.63;;;1.10;;
52918;SDS011;38793;52.690;6.812;2023-07-24T21:14:32;3.97;;;1.35;;
52918;SDS011;38793;52.690;6.812;2023-07-24T21:17:00;9.48;;;1.42;;
52918;SDS011;38793;52.690;6.812;2023-07-24T21:19:26;8.25;;;1.48;;
52918;SDS011;38793;52.690;6.812;2023-07-24T21:21:51;5.68;;;1.55;;
52918;SDS011;38793;52.690;6.812;2023-07-24T21:24:17;7.13;;;1.50;;
52918;SDS011;38793;52.690;6.812;2023-07-24T21:26:42;4.93;;;1.33;;
52918;SDS011;38793;52.690;6.812;2023-07-24T21:29:08;9.65;;;2.30;;
52918;SDS011;38793;52.690;6.812;2023-07-24T21:31:33;3.58;;;0.77;;
52918;SDS011;38793;52.690;6.812;2023-07-24T21:33:59;4.05;;;1.52;;
52918;SDS011;38793;52.690;6.812;2023-07-24T21:36:25;5.47;;;1.50;;
52918;SDS011;38793;52.690;6.812;2023-07-24T21:38:51;4.25;;;1.10;;
52918;SDS011;38793;52.690;6.812;2023-07-24T21:41:17;7.70;;;1.23;;
52918;SDS011;38793;52.690;6.812;2023-07-24T21:43:42;5.25;;;1.15;;
52918;SDS011;38793;52.690;6.812;2023-07-24T21:46:08;7.10;;;1.48;;
52918;SDS011;38793;52.690;6.812;2023-07-24T21:48:34;8.70;;;1.20;;
52918;SDS011;38793;52.690;6.812;2023-07-24T21:51:00;8.27;;;2.08;;
52918;SDS011;38793;52.690;6.812;2023-07-24T21:55:52;7.07;;;1.15;;
52918;SDS011;38793;52.690;6.812;2023-07-24T21:58:17;5.72;;;1.75;;
52918;SDS011;38793;52.690;6.812;2023-07-24T22:00:43;7.03;;;1.90;;
52918;SDS011;38793;52.690;6.812;2023-07-24T22:03:09;3.17;;;0.93;;
52918;SDS011;38793;52.690;6.812;2023-07-24T22:05:35;4.18;;;1.40;;
52918;SDS011;38793;52.690;6.812;2023-07-24T22:08:00;5.80;;;1.10;;
52918;SDS011;38793;52.690;6.812;2023-07-24T22:10:26;4.55;;;1.15;;
52918;SDS011;38793;52.690;6.812;2023-07-24T22:12:52;10.40;;;2.40;;
52918;SDS011;38793;52.690;6.812;2023-07-24T22:15:18;2.50;;;1.55;;
52918;SDS011;38793;52.690;6.812;2023-07-24T22:17:44;5.57;;;1.33;;
52918;SDS011;38793;52.690;6.812;2023-07-24T22:20:09;8.45;;;1.17;;
52918;SDS011;38793;52.690;6.812;2023-07-24T22:22:36;11.05;;;2.17;;
52918;SDS011;38793;52.690;6.812;2023-07-24T22:25:03;11.57;;;2.03;;
52918;SDS011;38793;52.690;6.812;2023-07-24T22:27:29;6.15;;;1.75;;
52918;SDS011;38793;52.690;6.812;2023-07-24T22:29:55;7.93;;;1.83;;
52918;SDS011;38793;52.690;6.812;2023-07-24T22:32:21;9.55;;;2.03;;
52918;SDS011;38793;52.690;6.812;2023-07-24T22:34:47;9.13;;;2.60;;
52918;SDS011;38793;52.690;6.812;2023-07-24T22:37:17;6.07;;;1.60;;
52918;SDS011;38793;52.690;6.812;2023-07-24T22:39:43;10.70;;;1.77;;
52918;SDS011;38793;52.690;6.812;2023-07-24T22:42:09;7.05;;;1.77;;
52918;SDS011;38793;52.690;6.812;2023-07-24T22:44:35;6.50;;;1.83;;
52918;SDS011;38793;52.690;6.812;2023-07-24T22:47:02;5.80;;;2.00;;
52918;SDS011;38793;52.690;6.812;2023-07-24T22:49:28;8.82;;;1.80;;
52918;SDS011;38793;52.690;6.812;2023-07-24T22:51:53;6.00;;;1.90;;
52918;SDS011;38793;52.690;6.812;2023-07-24T22:54:19;6.45;;;2.10;;
52918;SDS011;38793;52.690;6.812;2023-07-24T22:56:44;9.93;;;2.22;;
52918;SDS011;38793;52.690;6.812;2023-07-24T22:59:23;20.95;;;2.30;;
52918;SDS011;38793;52.690;6.812;2023-07-24T23:01:50;6.53;;;2.20;;
52918;SDS011;38793;52.690;6.812;2023-07-24T23:04:17;12.75;;;2.58;;
52918;SDS011;38793;52.690;6.812;2023-07-24T23:06:46;10.07;;;2.97;;
52918;SDS011;38793;52.690;6.812;2023-07-24T23:09:11;10.80;;;2.92;;
52918;SDS011;38793;52.690;6.812;2023-07-24T23:11:37;8.57;;;2.10;;
52918;SDS011;38793;52.690;6.812;2023-07-24T23:14:03;7.90;;;2.22;;
52918;SDS011;38793;52.690;6.812;2023-07-24T23:16:28;9.55;;;2.63;;
52918;SDS011;38793;52.690;6.812;2023-07-24T23:18:54;6.03;;;2.50;;
52918;SDS011;38793;52.690;6.812;2023-07-24T23:21:19;5.32;;;2.63;;
52918;SDS011;38793;52.690;6.812;2023-07-24T23:23:45;11.48;;;2.78;;
52918;SDS011;38793;52.690;6.812;2023-07-24T23:26:11;12.48;;;3.03;;
52918;SDS011;38793;52.690;6.812;2023-07-24T23:28:36;7.55;;;2.42;;
52918;SDS011;38793;52.690;6.812;2023-07-24T23:31:05;7.57;;;2.28;;
52918;SDS011;38793;52.690;6.812;2023-07-24T23:33:31;5.72;;;2.08;;
52918;SDS011;38793;52.690;6.812;2023-07-24T23:35:57;7.90;;;2.47;;
52918;SDS011;38793;52.690;6.812;2023-07-24T23:38:23;7.60;;;2.38;;
52918;SDS011;38793;52.690;6.812;2023-07-24T23:40:58;6.38;;;1.80;;
52918;SDS011;38793;52.690;6.812;2023-07-24T23:43:25;6.35;;;2.05;;
52918;SDS011;38793;52.690;6.812;2023-07-24T23:45:51;4.05;;;2.13;;
52918;SDS011;38793;52.690;6.812;2023-07-24T23:48:17;9.20;;;2.58;;
52918;SDS011;38793;52.690;6.812;2023-07-24T23:50:42;9.98;;;2.78;;
52918;SDS011;38793;52.690;6.812;2023-07-24T23:53:08;6.82;;;2.47;;
52918;SDS011;38793;52.690;6.812;2023-07-24T23:55:34;3.15;;;2.05;;
52918;SDS011;38793;52.690;6.812;2023-07-24T23:58:00;3.85;;;2.47;;
